sensor_id;sensor_type;location;lat;lon;timestamp;P1;durP1;ratioP1;P2;durP2;ratioP2
65289;SDS011;51893;59.754;10.110;2023-08-21T00:00:12;14.00;;;2.70;;
65289;SDS011;51893;59.754;10.110;2023-08-21T00:03:01;10.60;;;2.70;;
65289;SDS011;51893;59.754;10.110;2023-08-21T00:05:29;11.00;;;2.80;;
65289;SDS011;51893;59.754;10.110;2023-08-21T00:07:57;12.40;;;2.70;;
65289;SDS011;51893;59.754;10.110;2023-08-21T00:10:25;12.60;;;2.60;;
65289;SDS011;51893;59.754;10.110;2023-08-21T00:12:54;14.00;;;2.60;;
65289;SDS011;51893;59.754;10.110;2023-08-21T00:15:22;10.80;;;2.50;;
65289;SDS011;51893;59.754;10.110;2023-08-21T00:17:49;15.70;;;3.40;;
65289;SDS011;51893;59.754;10.110;2023-08-21T00:20:18;12.10;;;3.00;;
65289;SDS011;51893;59.754;10.110;2023-08-21T00:22:46;12.00;;;2.70;;
65289;SDS011;51893;59.754;10.110;2023-08-21T00:25:14;11.60;;;2.60;;
65289;SDS011;51893;59.754;10.110;2023-08-21T00:27:42;8.40;;;2.90;;
65289;SDS011;51893;59.754;10.110;2023-08-21T00:30:11;8.70;;;2.50;;
65289;SDS011;51893;59.754;10.110;2023-08-21T00:32:39;20.00;;;2.90;;
65289;SDS011;51893;59.754;10.110;2023-08-21T00:35:07;18.90;;;6.70;;
65289;SDS011;51893;59.754;10.110;2023-08-21T00:37:37;26.20;;;11.10;;
65289;SDS011;51893;59.754;10.110;2023-08-21T00:40:05;20.00;;;8.20;;
65289;SDS011;51893;59.754;10.110;2023-08-21T00:42:33;32.70;;;14.50;;
65289;SDS011;51893;59.754;10.110;2023-08-21T00:45:02;16.70;;;6.80;;
65289;SDS011;51893;59.754;10.110;2023-08-21T00:47:30;10.00;;;3.40;;
65289;SDS011;51893;59.754;10.110;2023-08-21T00:49:58;11.10;;;2.90;;
65289;SDS011;51893;59.754;10.110;2023-08-21T00:52:27;10.40;;;3.00;;
65289;SDS011;51893;59.754;10.110;2023-08-21T00:54:55;11.20;;;2.80;;
65289;SDS011;51893;59.754;10.110;2023-08-21T00:57:25;9.80;;;3.00;;
65289;SDS011;51893;59.754;10.110;2023-08-21T00:59:53;12.30;;;2.80;;
65289;SDS011;51893;59.754;10.110;2023-08-21T01:02:22;10.30;;;2.90;;
65289;SDS011;51893;59.754;10.110;2023-08-21T01:04:50;10.10;;;2.50;;
65289;SDS011;51893;59.754;10.110;2023-08-21T01:07:17;17.60;;;2.50;;
65289;SDS011;51893;59.754;10.110;2023-08-21T01:09:49;10.10;;;2.30;;
65289;SDS011;51893;59.754;10.110;2023-08-21T01:12:37;10.10;;;2.00;;
65289;SDS011;51893;59.754;10.110;2023-08-21T01:15:12;7.00;;;1.80;;
65289;SDS011;51893;59.754;10.110;2023-08-21T01:17:43;7.70;;;2.00;;
65289;SDS011;51893;59.754;10.110;2023-08-21T01:20:14;15.70;;;2.40;;
65289;SDS011;51893;59.754;10.110;2023-08-21T01:22:44;7.20;;;2.10;;
65289;SDS011;51893;59.754;10.110;2023-08-21T01:25:15;9.90;;;2.50;;
65289;SDS011;51893;59.754;10.110;2023-08-21T01:27:48;7.80;;;2.00;;
65289;SDS011;51893;59.754;10.110;2023-08-21T01:30:18;13.50;;;2.40;;
65289;SDS011;51893;59.754;10.110;2023-08-21T01:33:06;10.20;;;2.20;;
65289;SDS011;51893;59.754;10.110;2023-08-21T01:35:38;9.80;;;1.70;;
65289;SDS011;51893;59.754;10.110;2023-08-21T01:38:07;10.40;;;2.20;;
65289;SDS011;51893;59.754;10.110;2023-08-21T01:40:35;7.00;;;2.60;;
65289;SDS011;51893;59.754;10.110;2023-08-21T01:43:03;9.60;;;2.50;;
65289;SDS011;51893;59.754;10.110;2023-08-21T01:45:31;9.00;;;2.40;;
65289;SDS011;51893;59.754;10.110;2023-08-21T01:47:59;8.20;;;2.50;;
65289;SDS011;51893;59.754;10.110;2023-08-21T01:50:28;10.70;;;2.10;;
65289;SDS011;51893;59.754;10.110;2023-08-21T01:52:56;13.40;;;2.30;;
65289;SDS011;51893;59.754;10.110;2023-08-21T01:55:24;9.00;;;2.00;;
65289;SDS011;51893;59.754;10.110;2023-08-21T01:57:52;8.90;;;1.80;;
65289;SDS011;51893;59.754;10.110;2023-08-21T02:00:20;11.60;;;2.00;;
65289;SDS011;51893;59.754;10.110;2023-08-21T02:02:48;10.70;;;2.00;;
65289;SDS011;51893;59.754;10.110;2023-08-21T02:05:16;9.70;;;2.20;;
65289;SDS011;51893;59.754;10.110;2023-08-21T02:07:44;7.80;;;2.20;;
65289;SDS011;51893;59.754;10.110;2023-08-21T02:10:12;6.30;;;1.80;;
65289;SDS011;51893;59.754;10.110;2023-08-21T02:12:41;3.40;;;1.50;;
65289;SDS011;51893;59.754;10.110;2023-08-21T02:15:10;6.00;;;1.70;;
65289;SDS011;51893;59.754;10.110;2023-08-21T02:17:39;7.10;;;1.60;;
65289;SDS011;51893;59.754;10.110;2023-08-21T02:20:10;2.50;;;1.30;;
65289;SDS011;51893;59.754;10.110;2023-08-21T02:22:38;8.30;;;1.50;;
65289;SDS011;51893;59.754;10.110;2023-08-21T02:25:07;7.90;;;1.40;;
65289;SDS011;51893;59.754;10.110;2023-08-21T02:27:35;5.10;;;2.00;;
65289;SDS011;51893;59.754;10.110;2023-08-21T02:30:04;3.80;;;2.00;;
65289;SDS011;51893;59.754;10.110;2023-08-21T02:32:32;4.80;;;1.90;;
65289;SDS011;51893;59.754;10.110;2023-08-21T02:35:01;6.90;;;1.50;;
65289;SDS011;51893;59.754;10.110;2023-08-21T02:37:28;3.70;;;1.60;;
65289;SDS011;51893;59.754;10.110;2023-08-21T02:39:56;2.50;;;1.70;;
65289;SDS011;51893;59.754;10.110;2023-08-21T02:42:24;6.10;;;1.60;;
65289;SDS011;51893;59.754;10.110;2023-08-21T02:44:52;5.90;;;1.70;;
65289;SDS011;51893;59.754;10.110;2023-08-21T02:47:20;4.20;;;2.00;;
65289;SDS011;51893;59.754;10.110;2023-08-21T02:49:48;7.10;;;1.60;;
65289;SDS011;51893;59.754;10.110;2023-08-21T02:52:17;13.20;;;2.00;;
65289;SDS011;51893;59.754;10.110;2023-08-21T02:54:45;7.90;;;1.60;;
65289;SDS011;51893;59.754;10.110;2023-08-21T02:57:13;5.10;;;1.70;;
65289;SDS011;51893;59.754;10.110;2023-08-21T02:59:41;10.00;;;1.50;;
65289;SDS011;51893;59.754;10.110;2023-08-21T03:02:08;13.00;;;1.70;;
65289;SDS011;51893;59.754;10.110;2023-08-21T03:04:36;3.30;;;1.60;;
65289;SDS011;51893;59.754;10.110;2023-08-21T03:07:04;7.10;;;1.90;;
65289;SDS011;51893;59.754;10.110;2023-08-21T03:09:32;4.70;;;1.70;;
65289;SDS011;51893;59.754;10.110;2023-08-21T03:12:00;5.70;;;1.50;;
65289;SDS011;51893;59.754;10.110;2023-08-21T03:14:28;3.90;;;1.80;;
65289;SDS011;51893;59.754;10.110;2023-08-21T03:16:56;11.10;;;2.00;;
65289;SDS011;51893;59.754;10.110;2023-08-21T03:19:24;10.70;;;2.10;;
65289;SDS011;51893;59.754;10.110;2023-08-21T03:21:52;12.40;;;2.50;;
65289;SDS011;51893;59.754;10.110;2023-08-21T03:24:20;11.00;;;1.80;;
65289;SDS011;51893;59.754;10.110;2023-08-21T03:26:47;14.20;;;2.90;;
65289;SDS011;51893;59.754;10.110;2023-08-21T03:29:15;8.50;;;2.90;;
65289;SDS011;51893;59.754;10.110;2023-08-21T03:31:47;9.90;;;2.90;;
65289;SDS011;51893;59.754;10.110;2023-08-21T03:34:17;14.20;;;2.90;;
65289;SDS011;51893;59.754;10.110;2023-08-21T03:36:45;11.60;;;2.50;;
65289;SDS011;51893;59.754;10.110;2023-08-21T03:39:13;9.40;;;2.70;;
65289;SDS011;51893;59.754;10.110;2023-08-21T03:41:41;7.10;;;2.60;;
65289;SDS011;51893;59.754;10.110;2023-08-21T03:44:09;11.10;;;2.90;;
65289;SDS011;51893;59.754;10.110;2023-08-21T03:46:37;13.30;;;3.10;;
65289;SDS011;51893;59.754;10.110;2023-08-21T03:49:05;8.40;;;2.90;;
65289;SDS011;51893;59.754;10.110;2023-08-21T03:51:33;4.70;;;2.30;;
65289;SDS011;51893;59.754;10.110;2023-08-21T03:54:01;7.80;;;2.30;;
65289;SDS011;51893;59.754;10.110;2023-08-21T03:56:29;6.20;;;2.30;;
65289;SDS011;51893;59.754;10.110;2023-08-21T03:58:57;12.90;;;2.70;;
65289;SDS011;51893;59.754;10.110;2023-08-21T04:01:25;8.10;;;2.10;;
65289;SDS011;51893;59.754;10.110;2023-08-21T04:03:53;4.40;;;1.80;;
65289;SDS011;51893;59.754;10.110;2023-08-21T04:06:21;6.10;;;2.10;;
65289;SDS011;51893;59.754;10.110;2023-08-21T04:08:49;8.50;;;2.90;;
65289;SDS011;51893;59.754;10.110;2023-08-21T04:11:17;6.30;;;2.30;;
65289;SDS011;51893;59.754;10.110;2023-08-21T04:13:45;7.60;;;2.00;;
65289;SDS011;51893;59.754;10.110;2023-08-21T04:16:12;5.40;;;2.10;;
65289;SDS011;51893;59.754;10.110;2023-08-21T04:18:40;5.00;;;2.10;;
65289;SDS011;51893;59.754;10.110;2023-08-21T04:21:09;6.30;;;1.80;;
65289;SDS011;51893;59.754;10.110;2023-08-21T04:23:37;5.30;;;1.80;;
65289;SDS011;51893;59.754;10.110;2023-08-21T04:26:05;3.90;;;1.80;;
65289;SDS011;51893;59.754;10.110;2023-08-21T04:28:34;5.20;;;1.50;;
65289;SDS011;51893;59.754;10.110;2023-08-21T04:31:04;5.00;;;1.80;;
65289;SDS011;51893;59.754;10.110;2023-08-21T04:33:34;5.90;;;2.50;;
65289;SDS011;51893;59.754;10.110;2023-08-21T04:36:02;6.90;;;2.40;;
65289;SDS011;51893;59.754;10.110;2023-08-21T04:38:31;5.30;;;2.30;;
65289;SDS011;51893;59.754;10.110;2023-08-21T04:41:08;3.00;;;1.90;;
65289;SDS011;51893;59.754;10.110;2023-08-21T04:43:37;9.90;;;2.20;;
65289;SDS011;51893;59.754;10.110;2023-08-21T04:46:05;11.10;;;2.10;;
65289;SDS011;51893;59.754;10.110;2023-08-21T04:48:34;7.20;;;2.50;;
65289;SDS011;51893;59.754;10.110;2023-08-21T04:51:02;8.80;;;2.20;;
65289;SDS011;51893;59.754;10.110;2023-08-21T04:53:30;8.90;;;2.20;;
65289;SDS011;51893;59.754;10.110;2023-08-21T04:55:59;4.90;;;1.90;;
65289;SDS011;51893;59.754;10.110;2023-08-21T04:58:27;7.20;;;2.00;;
65289;SDS011;51893;59.754;10.110;2023-08-21T05:00:56;4.90;;;1.90;;
65289;SDS011;51893;59.754;10.110;2023-08-21T05:03:24;8.20;;;2.20;;
65289;SDS011;51893;59.754;10.110;2023-08-21T05:05:55;9.50;;;2.00;;
65289;SDS011;51893;59.754;10.110;2023-08-21T05:08:25;7.80;;;1.90;;
65289;SDS011;51893;59.754;10.110;2023-08-21T05:11:00;3.30;;;1.50;;
65289;SDS011;51893;59.754;10.110;2023-08-21T05:13:28;3.60;;;1.60;;
65289;SDS011;51893;59.754;10.110;2023-08-21T05:15:57;3.50;;;1.70;;
65289;SDS011;51893;59.754;10.110;2023-08-21T05:18:26;4.00;;;1.40;;
65289;SDS011;51893;59.754;10.110;2023-08-21T05:20:55;3.10;;;1.40;;
65289;SDS011;51893;59.754;10.110;2023-08-21T05:23:23;6.20;;;1.40;;
65289;SDS011;51893;59.754;10.110;2023-08-21T05:25:51;6.30;;;1.30;;
65289;SDS011;51893;59.754;10.110;2023-08-21T05:28:19;3.80;;;1.30;;
65289;SDS011;51893;59.754;10.110;2023-08-21T05:30:47;3.70;;;1.50;;
65289;SDS011;51893;59.754;10.110;2023-08-21T05:33:16;2.80;;;1.30;;
65289;SDS011;51893;59.754;10.110;2023-08-21T05:35:44;6.20;;;1.50;;
65289;SDS011;51893;59.754;10.110;2023-08-21T05:38:12;3.60;;;1.40;;
65289;SDS011;51893;59.754;10.110;2023-08-21T05:40:41;1.80;;;1.20;;
65289;SDS011;51893;59.754;10.110;2023-08-21T05:43:09;3.80;;;1.40;;
65289;SDS011;51893;59.754;10.110;2023-08-21T05:45:37;1.60;;;1.30;;
65289;SDS011;51893;59.754;10.110;2023-08-21T05:48:05;3.40;;;1.30;;
65289;SDS011;51893;59.754;10.110;2023-08-21T05:50:33;2.30;;;1.20;;
65289;SDS011;51893;59.754;10.110;2023-08-21T05:53:05;3.40;;;1.10;;
65289;SDS011;51893;59.754;10.110;2023-08-21T05:55:33;3.90;;;1.20;;
65289;SDS011;51893;59.754;10.110;2023-08-21T05:58:04;4.50;;;1.20;;
65289;SDS011;51893;59.754;10.110;2023-08-21T06:00:33;4.00;;;1.40;;
65289;SDS011;51893;59.754;10.110;2023-08-21T06:03:02;5.20;;;1.70;;
65289;SDS011;51893;59.754;10.110;2023-08-21T06:05:31;8.10;;;1.40;;
65289;SDS011;51893;59.754;10.110;2023-08-21T06:07:59;4.00;;;1.30;;
65289;SDS011;51893;59.754;10.110;2023-08-21T06:10:27;1.80;;;1.10;;
65289;SDS011;51893;59.754;10.110;2023-08-21T06:12:54;2.80;;;1.10;;
65289;SDS011;51893;59.754;10.110;2023-08-21T06:15:22;4.60;;;1.00;;
65289;SDS011;51893;59.754;10.110;2023-08-21T06:17:50;2.20;;;1.20;;
65289;SDS011;51893;59.754;10.110;2023-08-21T06:20:18;2.10;;;1.00;;
65289;SDS011;51893;59.754;10.110;2023-08-21T06:22:47;4.70;;;1.20;;
65289;SDS011;51893;59.754;10.110;2023-08-21T06:25:15;1.90;;;1.20;;
65289;SDS011;51893;59.754;10.110;2023-08-21T06:27:43;2.60;;;1.00;;
65289;SDS011;51893;59.754;10.110;2023-08-21T06:30:28;5.90;;;1.10;;
65289;SDS011;51893;59.754;10.110;2023-08-21T06:32:56;1.80;;;0.90;;
65289;SDS011;51893;59.754;10.110;2023-08-21T06:35:24;6.50;;;1.50;;
65289;SDS011;51893;59.754;10.110;2023-08-21T06:37:52;2.70;;;1.30;;
65289;SDS011;51893;59.754;10.110;2023-08-21T06:40:22;7.20;;;1.10;;
65289;SDS011;51893;59.754;10.110;2023-08-21T06:42:50;2.90;;;1.20;;
65289;SDS011;51893;59.754;10.110;2023-08-21T06:45:18;4.00;;;1.20;;
65289;SDS011;51893;59.754;10.110;2023-08-21T06:47:46;3.80;;;1.20;;
65289;SDS011;51893;59.754;10.110;2023-08-21T06:50:15;4.50;;;0.90;;
65289;SDS011;51893;59.754;10.110;2023-08-21T06:52:43;3.80;;;1.20;;
65289;SDS011;51893;59.754;10.110;2023-08-21T06:55:11;1.60;;;0.90;;
65289;SDS011;51893;59.754;10.110;2023-08-21T06:57:39;2.60;;;1.10;;
65289;SDS011;51893;59.754;10.110;2023-08-21T07:00:07;2.60;;;0.80;;
65289;SDS011;51893;59.754;10.110;2023-08-21T07:02:37;4.30;;;1.00;;
65289;SDS011;51893;59.754;10.110;2023-08-21T07:05:05;3.10;;;0.90;;
65289;SDS011;51893;59.754;10.110;2023-08-21T07:07:38;1.80;;;1.10;;
65289;SDS011;51893;59.754;10.110;2023-08-21T07:10:06;1.90;;;0.90;;
65289;SDS011;51893;59.754;10.110;2023-08-21T07:12:35;2.40;;;1.20;;
65289;SDS011;51893;59.754;10.110;2023-08-21T07:15:04;6.40;;;1.30;;
65289;SDS011;51893;59.754;10.110;2023-08-21T07:17:33;4.70;;;1.20;;
65289;SDS011;51893;59.754;10.110;2023-08-21T07:20:01;6.40;;;1.30;;
65289;SDS011;51893;59.754;10.110;2023-08-21T07:22:28;6.40;;;1.00;;
65289;SDS011;51893;59.754;10.110;2023-08-21T07:24:57;6.30;;;1.20;;
65289;SDS011;51893;59.754;10.110;2023-08-21T07:27:24;2.00;;;0.90;;
65289;SDS011;51893;59.754;10.110;2023-08-21T07:29:53;3.60;;;0.90;;
65289;SDS011;51893;59.754;10.110;2023-08-21T07:32:21;3.60;;;0.90;;
65289;SDS011;51893;59.754;10.110;2023-08-21T07:34:53;2.20;;;0.80;;
65289;SDS011;51893;59.754;10.110;2023-08-21T07:37:24;2.90;;;0.90;;
65289;SDS011;51893;59.754;10.110;2023-08-21T07:39:53;1.40;;;1.00;;
65289;SDS011;51893;59.754;10.110;2023-08-21T07:42:23;4.20;;;0.90;;
65289;SDS011;51893;59.754;10.110;2023-08-21T07:44:51;2.90;;;0.90;;
65289;SDS011;51893;59.754;10.110;2023-08-21T07:47:19;2.00;;;0.90;;
65289;SDS011;51893;59.754;10.110;2023-08-21T07:49:47;3.40;;;1.00;;
65289;SDS011;51893;59.754;10.110;2023-08-21T07:52:15;7.40;;;0.90;;
65289;SDS011;51893;59.754;10.110;2023-08-21T07:54:43;3.10;;;1.10;;
65289;SDS011;51893;59.754;10.110;2023-08-21T07:57:11;1.80;;;0.80;;
65289;SDS011;51893;59.754;10.110;2023-08-21T07:59:40;3.20;;;0.90;;
65289;SDS011;51893;59.754;10.110;2023-08-21T08:02:08;7.40;;;1.00;;
65289;SDS011;51893;59.754;10.110;2023-08-21T08:04:39;3.80;;;0.90;;
65289;SDS011;51893;59.754;10.110;2023-08-21T08:07:07;2.60;;;0.80;;
65289;SDS011;51893;59.754;10.110;2023-08-21T08:09:35;2.00;;;0.90;;
65289;SDS011;51893;59.754;10.110;2023-08-21T08:12:03;3.30;;;0.70;;
65289;SDS011;51893;59.754;10.110;2023-08-21T08:14:35;1.70;;;0.70;;
65289;SDS011;51893;59.754;10.110;2023-08-21T08:17:03;3.50;;;0.80;;
65289;SDS011;51893;59.754;10.110;2023-08-21T08:19:31;2.40;;;0.90;;
65289;SDS011;51893;59.754;10.110;2023-08-21T08:22:00;2.40;;;0.80;;
65289;SDS011;51893;59.754;10.110;2023-08-21T08:24:28;1.70;;;0.90;;
65289;SDS011;51893;59.754;10.110;2023-08-21T08:26:56;1.00;;;0.70;;
65289;SDS011;51893;59.754;10.110;2023-08-21T08:29:24;3.80;;;0.70;;
65289;SDS011;51893;59.754;10.110;2023-08-21T08:31:52;3.60;;;1.00;;
65289;SDS011;51893;59.754;10.110;2023-08-21T08:34:21;2.00;;;0.70;;
65289;SDS011;51893;59.754;10.110;2023-08-21T08:36:49;2.40;;;0.70;;
65289;SDS011;51893;59.754;10.110;2023-08-21T08:39:17;0.70;;;0.50;;
65289;SDS011;51893;59.754;10.110;2023-08-21T08:42:03;2.40;;;0.60;;
65289;SDS011;51893;59.754;10.110;2023-08-21T08:44:35;1.20;;;0.60;;
65289;SDS011;51893;59.754;10.110;2023-08-21T08:47:06;1.60;;;0.60;;
65289;SDS011;51893;59.754;10.110;2023-08-21T08:49:34;0.90;;;0.50;;
65289;SDS011;51893;59.754;10.110;2023-08-21T08:52:02;0.60;;;0.50;;
65289;SDS011;51893;59.754;10.110;2023-08-21T08:54:31;0.90;;;0.70;;
65289;SDS011;51893;59.754;10.110;2023-08-21T08:57:00;0.60;;;0.60;;
65289;SDS011;51893;59.754;10.110;2023-08-21T08:59:32;1.10;;;0.60;;
65289;SDS011;51893;59.754;10.110;2023-08-21T09:02:00;1.60;;;0.60;;
65289;SDS011;51893;59.754;10.110;2023-08-21T09:04:28;0.70;;;0.50;;
65289;SDS011;51893;59.754;10.110;2023-08-21T09:07:17;0.50;;;0.50;;
65289;SDS011;51893;59.754;10.110;2023-08-21T09:09:48;0.50;;;0.50;;
65289;SDS011;51893;59.754;10.110;2023-08-21T09:12:18;1.00;;;0.50;;
65289;SDS011;51893;59.754;10.110;2023-08-21T09:14:47;1.50;;;0.30;;
65289;SDS011;51893;59.754;10.110;2023-08-21T09:17:15;3.60;;;0.60;;
65289;SDS011;51893;59.754;10.110;2023-08-21T09:19:44;0.50;;;0.50;;
65289;SDS011;51893;59.754;10.110;2023-08-21T09:22:17;0.50;;;0.40;;
65289;SDS011;51893;59.754;10.110;2023-08-21T09:25:06;0.50;;;0.30;;
65289;SDS011;51893;59.754;10.110;2023-08-21T09:27:36;1.40;;;0.40;;
65289;SDS011;51893;59.754;10.110;2023-08-21T09:30:11;3.90;;;0.60;;
65289;SDS011;51893;59.754;10.110;2023-08-21T09:32:58;0.40;;;0.30;;
65289;SDS011;51893;59.754;10.110;2023-08-21T09:35:32;0.90;;;0.40;;
65289;SDS011;51893;59.754;10.110;2023-08-21T09:38:01;1.30;;;0.40;;
65289;SDS011;51893;59.754;10.110;2023-08-21T09:40:29;1.90;;;0.30;;
65289;SDS011;51893;59.754;10.110;2023-08-21T09:42:57;0.40;;;0.40;;
65289;SDS011;51893;59.754;10.110;2023-08-21T09:45:27;2.50;;;0.50;;
65289;SDS011;51893;59.754;10.110;2023-08-21T09:47:57;0.40;;;0.40;;
65289;SDS011;51893;59.754;10.110;2023-08-21T09:50:29;0.60;;;0.50;;
65289;SDS011;51893;59.754;10.110;2023-08-21T09:52:57;0.90;;;0.40;;
65289;SDS011;51893;59.754;10.110;2023-08-21T09:55:26;0.50;;;0.40;;
65289;SDS011;51893;59.754;10.110;2023-08-21T09:58:01;0.70;;;0.40;;
65289;SDS011;51893;59.754;10.110;2023-08-21T10:00:31;2.60;;;0.50;;
65289;SDS011;51893;59.754;10.110;2023-08-21T10:03:06;0.70;;;0.70;;
65289;SDS011;51893;59.754;10.110;2023-08-21T10:05:39;0.90;;;0.80;;
65289;SDS011;51893;59.754;10.110;2023-08-21T10:08:08;0.60;;;0.60;;
65289;SDS011;51893;59.754;10.110;2023-08-21T10:10:38;2.80;;;0.60;;
65289;SDS011;51893;59.754;10.110;2023-08-21T10:13:07;2.60;;;0.70;;
65289;SDS011;51893;59.754;10.110;2023-08-21T10:15:37;1.20;;;0.80;;
65289;SDS011;51893;59.754;10.110;2023-08-21T10:18:29;0.70;;;0.60;;
65289;SDS011;51893;59.754;10.110;2023-08-21T10:21:14;1.60;;;0.80;;
65289;SDS011;51893;59.754;10.110;2023-08-21T10:23:54;0.80;;;0.80;;
65289;SDS011;51893;59.754;10.110;2023-08-21T10:26:26;1.30;;;1.20;;
65289;SDS011;51893;59.754;10.110;2023-08-21T10:29:02;1.60;;;1.50;;
65289;SDS011;51893;59.754;10.110;2023-08-21T10:31:37;2.30;;;1.30;;
65289;SDS011;51893;59.754;10.110;2023-08-21T10:34:09;4.00;;;2.50;;
65289;SDS011;51893;59.754;10.110;2023-08-21T10:39:23;1.50;;;0.80;;
65289;SDS011;51893;59.754;10.110;2023-08-21T10:42:12;0.70;;;0.60;;
65289;SDS011;51893;59.754;10.110;2023-08-21T10:47:23;1.40;;;0.70;;
65289;SDS011;51893;59.754;10.110;2023-08-21T10:50:01;1.10;;;0.60;;
65289;SDS011;51893;59.754;10.110;2023-08-21T10:52:41;0.70;;;0.60;;
65289;SDS011;51893;59.754;10.110;2023-08-21T10:55:15;1.40;;;0.80;;
65289;SDS011;51893;59.754;10.110;2023-08-21T10:57:47;1.00;;;0.50;;
65289;SDS011;51893;59.754;10.110;2023-08-21T11:00:18;1.30;;;0.60;;
65289;SDS011;51893;59.754;10.110;2023-08-21T11:02:49;1.90;;;0.90;;
65289;SDS011;51893;59.754;10.110;2023-08-21T11:05:18;0.60;;;0.60;;
65289;SDS011;51893;59.754;10.110;2023-08-21T11:07:47;4.20;;;0.90;;
65289;SDS011;51893;59.754;10.110;2023-08-21T11:10:21;1.10;;;1.00;;
65289;SDS011;51893;59.754;10.110;2023-08-21T11:12:55;1.10;;;0.80;;
65289;SDS011;51893;59.754;10.110;2023-08-21T11:15:26;1.00;;;0.70;;
65289;SDS011;51893;59.754;10.110;2023-08-21T11:18:01;1.30;;;0.80;;
65289;SDS011;51893;59.754;10.110;2023-08-21T11:20:34;0.80;;;0.70;;
65289;SDS011;51893;59.754;10.110;2023-08-21T11:23:05;1.80;;;0.80;;
65289;SDS011;51893;59.754;10.110;2023-08-21T11:25:40;0.80;;;0.70;;
65289;SDS011;51893;59.754;10.110;2023-08-21T11:28:08;4.90;;;0.80;;
65289;SDS011;51893;59.754;10.110;2023-08-21T11:30:36;2.30;;;0.90;;
65289;SDS011;51893;59.754;10.110;2023-08-21T11:33:09;1.10;;;0.70;;
65289;SDS011;51893;59.754;10.110;2023-08-21T11:35:40;0.50;;;0.50;;
65289;SDS011;51893;59.754;10.110;2023-08-21T11:38:17;2.90;;;1.00;;
65289;SDS011;51893;59.754;10.110;2023-08-21T11:40:57;3.50;;;1.40;;
65289;SDS011;51893;59.754;10.110;2023-08-21T11:43:37;1.00;;;0.50;;
65289;SDS011;51893;59.754;10.110;2023-08-21T11:46:10;0.70;;;0.70;;
65289;SDS011;51893;59.754;10.110;2023-08-21T11:48:40;1.10;;;0.70;;
65289;SDS011;51893;59.754;10.110;2023-08-21T11:51:09;2.10;;;1.10;;
65289;SDS011;51893;59.754;10.110;2023-08-21T11:53:41;3.20;;;0.70;;
65289;SDS011;51893;59.754;10.110;2023-08-21T11:56:15;2.70;;;0.90;;
65289;SDS011;51893;59.754;10.110;2023-08-21T11:58:45;1.40;;;0.80;;
65289;SDS011;51893;59.754;10.110;2023-08-21T12:01:20;4.10;;;0.80;;
65289;SDS011;51893;59.754;10.110;2023-08-21T12:03:49;1.00;;;0.90;;
65289;SDS011;51893;59.754;10.110;2023-08-21T12:06:24;1.60;;;0.90;;
65289;SDS011;51893;59.754;10.110;2023-08-21T12:08:53;1.50;;;0.90;;
65289;SDS011;51893;59.754;10.110;2023-08-21T12:11:22;1.80;;;0.90;;
65289;SDS011;51893;59.754;10.110;2023-08-21T12:13:52;0.70;;;0.70;;
65289;SDS011;51893;59.754;10.110;2023-08-21T12:16:21;0.80;;;0.70;;
65289;SDS011;51893;59.754;10.110;2023-08-21T12:18:49;1.80;;;0.90;;
65289;SDS011;51893;59.754;10.110;2023-08-21T12:21:18;3.10;;;0.70;;
65289;SDS011;51893;59.754;10.110;2023-08-21T12:23:46;0.80;;;0.70;;
65289;SDS011;51893;59.754;10.110;2023-08-21T12:26:14;1.20;;;0.70;;
65289;SDS011;51893;59.754;10.110;2023-08-21T12:28:49;2.50;;;0.80;;
65289;SDS011;51893;59.754;10.110;2023-08-21T12:31:17;1.80;;;1.10;;
65289;SDS011;51893;59.754;10.110;2023-08-21T12:33:45;1.50;;;0.70;;
65289;SDS011;51893;59.754;10.110;2023-08-21T12:36:13;0.70;;;0.70;;
65289;SDS011;51893;59.754;10.110;2023-08-21T12:38:41;0.70;;;0.70;;
65289;SDS011;51893;59.754;10.110;2023-08-21T12:41:09;0.70;;;0.70;;
65289;SDS011;51893;59.754;10.110;2023-08-21T12:43:37;0.80;;;0.70;;
65289;SDS011;51893;59.754;10.110;2023-08-21T12:46:05;2.20;;;0.90;;
65289;SDS011;51893;59.754;10.110;2023-08-21T12:48:35;1.40;;;0.90;;
65289;SDS011;51893;59.754;10.110;2023-08-21T12:51:04;2.50;;;0.80;;
65289;SDS011;51893;59.754;10.110;2023-08-21T12:53:32;0.60;;;0.60;;
65289;SDS011;51893;59.754;10.110;2023-08-21T12:56:00;2.50;;;1.00;;
65289;SDS011;51893;59.754;10.110;2023-08-21T12:58:29;2.10;;;0.90;;
65289;SDS011;51893;59.754;10.110;2023-08-21T13:00:57;1.90;;;1.00;;
65289;SDS011;51893;59.754;10.110;2023-08-21T13:03:25;1.90;;;1.10;;
65289;SDS011;51893;59.754;10.110;2023-08-21T13:05:56;1.10;;;1.00;;
65289;SDS011;51893;59.754;10.110;2023-08-21T13:08:24;3.30;;;1.00;;
65289;SDS011;51893;59.754;10.110;2023-08-21T13:10:52;0.80;;;0.80;;
65289;SDS011;51893;59.754;10.110;2023-08-21T13:13:20;5.40;;;1.10;;
65289;SDS011;51893;59.754;10.110;2023-08-21T13:15:48;1.40;;;1.00;;
65289;SDS011;51893;59.754;10.110;2023-08-21T13:18:16;3.70;;;1.00;;
65289;SDS011;51893;59.754;10.110;2023-08-21T13:20:44;1.10;;;0.90;;
65289;SDS011;51893;59.754;10.110;2023-08-21T13:23:13;0.70;;;0.70;;
65289;SDS011;51893;59.754;10.110;2023-08-21T13:25:41;3.70;;;0.90;;
65289;SDS011;51893;59.754;10.110;2023-08-21T13:28:09;0.80;;;0.70;;
65289;SDS011;51893;59.754;10.110;2023-08-21T13:30:38;1.40;;;1.00;;
65289;SDS011;51893;59.754;10.110;2023-08-21T13:33:07;0.80;;;0.70;;
65289;SDS011;51893;59.754;10.110;2023-08-21T13:35:35;4.80;;;0.80;;
65289;SDS011;51893;59.754;10.110;2023-08-21T13:38:03;2.30;;;0.90;;
65289;SDS011;51893;59.754;10.110;2023-08-21T13:40:32;1.50;;;1.00;;
65289;SDS011;51893;59.754;10.110;2023-08-21T13:43:00;2.20;;;0.80;;
65289;SDS011;51893;59.754;10.110;2023-08-21T13:45:29;1.20;;;0.90;;
65289;SDS011;51893;59.754;10.110;2023-08-21T13:47:58;0.80;;;0.80;;
65289;SDS011;51893;59.754;10.110;2023-08-21T13:50:26;1.10;;;0.80;;
65289;SDS011;51893;59.754;10.110;2023-08-21T13:52:54;3.50;;;0.70;;
65289;SDS011;51893;59.754;10.110;2023-08-21T13:55:22;1.00;;;1.00;;
65289;SDS011;51893;59.754;10.110;2023-08-21T13:57:50;1.60;;;0.80;;
65289;SDS011;51893;59.754;10.110;2023-08-21T14:00:18;1.10;;;0.70;;
65289;SDS011;51893;59.754;10.110;2023-08-21T14:02:46;1.00;;;0.80;;
65289;SDS011;51893;59.754;10.110;2023-08-21T14:05:14;1.90;;;0.90;;
65289;SDS011;51893;59.754;10.110;2023-08-21T14:07:42;2.10;;;0.90;;
65289;SDS011;51893;59.754;10.110;2023-08-21T14:10:10;2.70;;;0.70;;
65289;SDS011;51893;59.754;10.110;2023-08-21T14:12:40;0.80;;;0.80;;
65289;SDS011;51893;59.754;10.110;2023-08-21T14:15:10;0.60;;;0.60;;
65289;SDS011;51893;59.754;10.110;2023-08-21T14:17:38;1.70;;;0.80;;
65289;SDS011;51893;59.754;10.110;2023-08-21T14:20:10;2.50;;;0.70;;
65289;SDS011;51893;59.754;10.110;2023-08-21T14:22:39;0.70;;;0.70;;
65289;SDS011;51893;59.754;10.110;2023-08-21T14:25:07;2.30;;;0.80;;
65289;SDS011;51893;59.754;10.110;2023-08-21T14:27:35;1.30;;;0.70;;
65289;SDS011;51893;59.754;10.110;2023-08-21T14:30:05;0.60;;;0.60;;
65289;SDS011;51893;59.754;10.110;2023-08-21T14:32:34;2.20;;;0.70;;
65289;SDS011;51893;59.754;10.110;2023-08-21T14:35:05;0.70;;;0.70;;
65289;SDS011;51893;59.754;10.110;2023-08-21T14:37:37;3.20;;;0.70;;
65289;SDS011;51893;59.754;10.110;2023-08-21T14:40:07;0.70;;;0.70;;
65289;SDS011;51893;59.754;10.110;2023-08-21T14:42:38;3.60;;;0.80;;
65289;SDS011;51893;59.754;10.110;2023-08-21T14:45:07;0.80;;;0.70;;
65289;SDS011;51893;59.754;10.110;2023-08-21T14:47:35;2.20;;;0.80;;
65289;SDS011;51893;59.754;10.110;2023-08-21T14:50:06;1.30;;;0.90;;
65289;SDS011;51893;59.754;10.110;2023-08-21T14:52:35;3.60;;;0.70;;